Погода Нехлонинна 2 недели

Варминско-Мазурское воеводство, Польша

19 июля-01 августа
  • 19июля
    Сегодня
    +12°
    +26°
    Практически безоблачно
    ВремяПогодаТемператураВлажностьДавлениеВетер, м/сВероятность осадков
    02:00Облачно с прояснениями+15°C95 %752 мм1.3 м/с2 %
    05:00Ясно и безоблачно+14°C94 %752 мм1.2 м/с2 %
    08:00Ясно и безоблачно+19°C76 %752 мм2.0 м/с2 %
    11:00Ясно и безоблачно+22°C61 %752 мм3.7 м/с2 %
    14:00Практически безоблачно+24°C47 %751 мм3.9 м/с2 %
    17:00Практически безоблачно+25°C45 %750 мм3.7 м/с2 %
    20:00Ясно и безоблачно+23°C62 %749 мм1.7 м/с2 %
    23:00Ясно и безоблачно+17°C68 %749 мм1.0 м/с2 %
  • 20июля
    Суббота
    +14°
    +28°
    Ясно и безоблачно
    ВремяПогодаТемператураВлажностьДавлениеВетер, м/сВероятность осадков
    02:00Ясно и безоблачно+15°C91 %748 мм1.1 м/с2 %
    05:00Небольшая облачность+13°C95 %748 мм0.9 м/с2 %
    08:00Ясно и безоблачно+19°C72 %747 мм0.8 м/с2 %
    11:00Ясно и безоблачно+23°C53 %747 мм2.5 м/с2 %
    14:00Ясно и безоблачно+25°C46 %746 мм2.3 м/с2 %
    17:00Ясно и безоблачно+27°C40 %745 мм2.7 м/с2 %
    20:00Ясно и безоблачно+24°C64 %745 мм1.4 м/с2 %
    23:00Ясно и безоблачно+18°C74 %744 мм1.3 м/с2 %
  • 21июля
    Воскресенье
    +16°
    +29°
    Ясно и безоблачно
    ВремяПогодаТемператураВлажностьДавлениеВетер, м/сВероятность осадков
    02:00Ясно и безоблачно+16°C84 %744 мм1.2 м/с2 %
    05:00Ясно и безоблачно+15°C88 %744 мм1.2 м/с2 %
    08:00Ясно и безоблачно+21°C72 %744 мм1.2 м/с2 %
    11:00Ясно и безоблачно+25°C47 %744 мм2.0 м/с2 %
    14:00Ясно и безоблачно+27°C41 %743 мм1.9 м/с2 %
    17:00Ясно и безоблачно+29°C39 %743 мм2.8 м/с2 %
    20:00Ясно и безоблачно+25°C62 %742 мм1.9 м/с2 %
    23:00Ясно и безоблачно+20°C65 %743 мм1.8 м/с2 %
  • 22июля
    Понедельник
    +16°
    +31°
    Облачно с прояснениями
    ВремяПогодаТемператураВлажностьДавлениеВетер, м/сВероятность осадков
    02:00Практически безоблачно+18°C70 %743 мм1.9 м/с2 %
    05:00Ясно и безоблачно+16°C77 %743 мм1.4 м/с2 %
    08:00Ясно и безоблачно+22°C65 %743 мм1.3 м/с2 %
    11:00Ясно и безоблачно+27°C44 %743 мм2.0 м/с2 %
    14:00Облачно с прояснениями+29°C38 %743 мм2.1 м/с18 %
    17:00Облачно с прояснениями+30°C38 %743 мм2.2 м/с32 %
    20:00Облачно с прояснениями+27°C52 %744 мм1.6 м/с31 %
    23:00Пасмурно, сплошная облачность+22°C60 %745 мм1.6 м/с30 %
  • 23июля
    Вторник
    +13°
    +24°
    Небольшая облачность
    ВремяПогодаТемператураВлажностьДавлениеВетер, м/сВероятность осадков
    02:00Пасмурно, ливень+19°C86 %746 мм2.6 м/с29 %
    05:00Пасмурно, небольшой дождь+17°C93 %746 мм2.0 м/с23 %
    08:00Пасмурно, сплошная облачность+19°C86 %746 мм2.8 м/с21 %
    11:00Практически безоблачно+22°C69 %747 мм3.7 м/с31 %
    14:00Небольшая облачность+23°C54 %747 мм3.2 м/с35 %
    17:00Ясно и безоблачно+24°C51 %746 мм3.4 м/с29 %
    20:00Ясно и безоблачно+22°C59 %746 мм2.0 м/с26 %
    23:00Практически безоблачно+18°C73 %747 мм1.3 м/с26 %
Мы используем cookies
Соглашаюсь